createdAt,value
2018-09-13T00:01:29.947Z,92.00
2018-09-13T00:03:58.977Z,92.40
2018-09-13T00:06:28.274Z,91.90
2018-09-13T00:08:57.298Z,91.60
2018-09-13T00:11:26.213Z,91.70
2018-09-13T00:13:55.233Z,91.60
2018-09-13T00:16:24.216Z,91.60
2018-09-13T00:18:53.243Z,91.50
2018-09-13T00:21:22.210Z,91.60
2018-09-13T00:23:51.219Z,91.70
2018-09-13T00:26:20.238Z,91.80
2018-09-13T00:28:49.246Z,91.80
2018-09-13T00:31:18.236Z,91.50
2018-09-13T00:33:47.201Z,91.80
2018-09-13T00:36:16.163Z,92.00
2018-09-13T00:38:45.211Z,91.70
2018-09-13T00:41:14.280Z,91.60
2018-09-13T00:43:43.235Z,91.60
2018-09-13T00:46:12.259Z,91.70
2018-09-13T00:48:41.272Z,91.60
2018-09-13T00:51:10.559Z,91.80
2018-09-13T00:53:39.529Z,91.80
2018-09-13T00:56:08.779Z,91.60
2018-09-13T00:58:37.771Z,91.50
2018-09-13T01:01:06.788Z,91.80
2018-09-13T01:03:35.813Z,92.00
2018-09-13T01:06:04.800Z,91.80
2018-09-13T01:08:33.776Z,91.70
2018-09-13T01:11:02.865Z,91.70
2018-09-13T01:13:31.916Z,91.70
2018-09-13T01:16:00.900Z,92.10
2018-09-13T01:18:29.932Z,91.80
2018-09-13T01:20:58.974Z,91.80
2018-09-13T01:23:28.016Z,91.90
2018-09-13T01:25:57.059Z,92.20
2018-09-13T01:28:26.084Z,92.00
2018-09-13T01:30:55.064Z,91.90
2018-09-13T01:33:24.093Z,91.80
2018-09-13T01:38:56.333Z,91.60
2018-09-13T01:41:26.472Z,91.80
2018-09-13T01:43:55.577Z,92.00
2018-09-13T01:46:24.610Z,91.90
2018-09-13T01:48:53.678Z,92.10
2018-09-13T01:51:22.717Z,92.10
2018-09-13T01:53:51.761Z,92.30
2018-09-13T01:56:20.845Z,92.30
2018-09-13T01:58:49.886Z,92.20
2018-09-13T02:01:18.953Z,92.50
2018-09-13T02:03:47.968Z,92.90
2018-09-13T02:06:17.016Z,93.40
2018-09-13T02:08:46.053Z,93.60
2018-09-13T02:11:15.444Z,93.90
2018-09-13T02:13:44.481Z,93.60
2018-09-13T02:16:13.569Z,94.10
2018-09-13T02:18:42.657Z,94.70
2018-09-13T02:21:11.777Z,94.40
2018-09-13T02:23:40.842Z,95.00
2018-09-13T02:26:09.894Z,95.10
2018-09-13T02:28:38.961Z,95.40
2018-09-13T02:31:08.036Z,95.60
2018-09-13T02:33:37.093Z,95.50
2018-09-13T02:36:06.175Z,95.50
2018-09-13T02:38:35.197Z,95.60
2018-09-13T02:41:04.325Z,95.60
2018-09-13T02:43:33.360Z,96.00
2018-09-13T02:46:02.440Z,95.80
2018-09-13T02:48:31.652Z,95.30
2018-09-13T02:51:00.723Z,96.20
2018-09-13T02:53:29.776Z,95.90
2018-09-13T02:55:58.854Z,96.40
2018-09-13T02:58:27.948Z,96.20
2018-09-13T03:00:57.046Z,96.20
2018-09-13T03:03:26.073Z,96.00
2018-09-13T03:05:55.412Z,96.00
2018-09-13T03:08:24.447Z,96.20
2018-09-13T03:10:53.459Z,95.10
2018-09-13T03:13:22.489Z,95.60
2018-09-13T03:15:51.553Z,96.10
2018-09-13T03:18:20.585Z,96.30
2018-09-13T03:20:49.673Z,97.10
2018-09-13T03:23:18.699Z,96.00
2018-09-13T03:25:47.864Z,96.70
2018-09-13T03:28:16.933Z,96.60
2018-09-13T03:30:46.056Z,96.60
2018-09-13T03:33:15.191Z,96.70
2018-09-13T03:35:44.295Z,97.70
2018-09-13T03:38:13.365Z,98.30
2018-09-13T03:40:42.653Z,98.50
2018-09-13T03:43:11.702Z,97.60
2018-09-13T03:45:40.765Z,97.30
2018-09-13T03:48:09.928Z,98.00
2018-09-13T03:50:39.002Z,98.40
2018-09-13T03:53:08.046Z,98.60
2018-09-13T03:55:37.149Z,98.90
2018-09-13T03:58:06.477Z,99.10
2018-09-13T04:00:35.546Z,99.00
2018-09-13T04:03:04.713Z,99.10
2018-09-13T04:05:33.758Z,98.30
2018-09-13T04:08:03.020Z,98.20
2018-09-13T04:10:32.102Z,98.50
2018-09-13T04:13:01.262Z,98.40
2018-09-13T04:15:30.457Z,98.10
2018-09-13T04:17:59.509Z,98.30
2018-09-13T04:20:28.611Z,98.30
2018-09-13T04:22:57.724Z,98.40
2018-09-13T04:25:26.771Z,98.70
2018-09-13T04:27:55.865Z,98.70
2018-09-13T04:30:24.956Z,98.40
2018-09-13T04:32:54.027Z,99.00
2018-09-13T04:35:23.120Z,98.60
2018-09-13T04:37:52.197Z,98.40
2018-09-13T04:40:21.405Z,99.00
2018-09-13T04:42:50.418Z,99.00
2018-09-13T04:45:19.827Z,99.10
2018-09-13T04:47:48.849Z,99.00
2018-09-13T04:50:17.915Z,98.60
2018-09-13T04:52:46.981Z,99.00
2018-09-13T04:55:16.022Z,98.80
2018-09-13T04:57:45.054Z,98.30
2018-09-13T05:00:14.181Z,98.30
2018-09-13T05:02:43.232Z,98.50
2018-09-13T05:05:12.308Z,98.90
2018-09-13T05:07:41.368Z,99.10
2018-09-13T05:10:10.464Z,99.50
2018-09-13T05:12:39.536Z,99.20
2018-09-13T05:15:08.829Z,99.10
2018-09-13T05:17:37.913Z,99.10
2018-09-13T05:20:07.375Z,99.40
2018-09-13T05:22:36.497Z,99.30
2018-09-13T05:25:05.721Z,99.40
2018-09-13T05:27:34.809Z,99.50
2018-09-13T05:30:04.344Z,99.70
2018-09-13T05:32:33.435Z,99.50
2018-09-13T05:35:02.514Z,99.60
2018-09-13T05:37:31.977Z,99.40
2018-09-13T05:40:01.073Z,99.90
2018-09-13T05:42:30.102Z,99.80
2018-09-13T05:45:05.740Z,99.60
2018-09-13T05:47:34.902Z,98.90
2018-09-13T05:50:04.038Z,98.80
2018-09-13T05:52:33.098Z,98.80
2018-09-13T05:55:02.197Z,99.10
2018-09-13T05:57:31.300Z,99.10
2018-09-13T06:00:00.351Z,99.00
2018-09-13T06:02:29.461Z,99.30
2018-09-13T06:04:58.537Z,99.00
2018-09-13T06:07:27.620Z,98.90
2018-09-13T06:09:56.737Z,99.70
2018-09-13T06:12:25.768Z,99.70
2018-09-13T06:14:54.820Z,99.30
2018-09-13T06:17:23.877Z,99.70
2018-09-13T06:19:53.168Z,98.90
2018-09-13T06:22:22.094Z,98.90
2018-09-13T06:24:51.205Z,98.50
2018-09-13T06:27:20.317Z,98.70
2018-09-13T06:29:49.333Z,98.20
2018-09-13T06:32:18.365Z,97.50
2018-09-13T06:34:47.497Z,97.80
2018-09-13T06:37:16.533Z,98.10
2018-09-13T06:39:45.611Z,98.00
2018-09-13T06:42:14.645Z,98.60
2018-09-13T06:44:43.696Z,98.70
2018-09-13T06:47:12.790Z,98.30
2018-09-13T06:49:41.879Z,98.40
2018-09-13T06:52:11.010Z,98.30
2018-09-13T06:54:40.301Z,97.90
2018-09-13T06:57:09.330Z,97.70
2018-09-13T06:59:38.333Z,97.30
2018-09-13T07:02:07.653Z,97.60
2018-09-13T07:04:36.645Z,97.70
2018-09-13T07:07:05.970Z,97.50
2018-09-13T07:09:35.118Z,98.30
2018-09-13T07:12:04.180Z,97.90
2018-09-13T07:14:33.183Z,97.70
2018-09-13T07:17:02.312Z,97.20
2018-09-13T07:19:31.359Z,97.10
2018-09-13T07:22:00.707Z,97.00
2018-09-13T07:24:30.093Z,96.20
2018-09-13T07:26:59.124Z,96.10
2018-09-13T07:29:28.165Z,96.60
2018-09-13T07:31:57.228Z,96.90
2018-09-13T07:34:26.300Z,96.80
2018-09-13T07:36:55.371Z,96.50
2018-09-13T07:39:24.505Z,96.60
2018-09-13T07:41:53.518Z,95.60
2018-09-13T07:44:22.529Z,96.60
2018-09-13T07:46:51.582Z,96.50
2018-09-13T07:49:20.642Z,96.70
2018-09-13T07:51:49.760Z,96.60
2018-09-13T07:54:18.784Z,95.80
2018-09-13T07:56:47.850Z,96.20
2018-09-13T07:59:16.860Z,96.50
2018-09-13T08:01:45.904Z,96.10
2018-09-13T08:04:33.794Z,96.10
2018-09-13T08:07:02.808Z,96.90
2018-09-13T08:09:31.825Z,96.60
2018-09-13T08:12:00.925Z,96.30
2018-09-13T08:14:29.916Z,95.40
2018-09-13T08:16:58.899Z,95.20
2018-09-13T08:19:27.940Z,94.80
2018-09-13T08:21:57.035Z,96.10
2018-09-13T08:24:26.026Z,96.00
2018-09-13T08:26:55.091Z,95.90
2018-09-13T08:29:24.040Z,95.50
2018-09-13T08:31:53.059Z,94.80
2018-09-13T08:34:22.098Z,94.50
2018-09-13T08:36:51.184Z,94.80
2018-09-13T08:39:20.162Z,94.90
2018-09-13T08:41:49.198Z,95.10
2018-09-13T08:44:18.576Z,94.70
2018-09-13T08:46:47.600Z,95.10
2018-09-13T08:49:16.641Z,94.30
2018-09-13T08:51:45.705Z,94.40
2018-09-13T08:54:14.742Z,93.90
2018-09-13T08:56:43.864Z,94.00
2018-09-13T08:59:12.885Z,94.00
2018-09-13T09:01:41.994Z,93.90
2018-09-13T09:04:11.057Z,93.90
2018-09-13T09:06:40.026Z,94.70
2018-09-13T09:09:10.665Z,94.70
2018-09-13T09:11:39.729Z,94.90
2018-09-13T09:14:08.946Z,96.00
2018-09-13T09:16:37.967Z,95.30
2018-09-13T09:19:07.044Z,95.40
2018-09-13T09:21:36.058Z,95.50
